Time;durP1;ratioP1;P1;durP2;ratioP2;P2;SDS_P1;SDS_P2;PMS_P1;PMS_P2;Temp;Humidity;BMP_temperature;BMP_pressure;BME280_temperature;BME280_humidity;BME280_pressure;Samples;Min_cycle;Max_cycle;Signal;HPM_P1;HPM_P2
2023/05/06 00:01:23;;;;;;;6.55;2.30;;;;;;;12.41;100.00;97349.31;5054104;28;20043;-60
2023/05/06 00:03:50;;;;;;;12.65;3.25;;;;;;;12.33;100.00;97334.34;5053201;28;20044;-60
2023/05/06 00:06:17;;;;;;;12.63;3.30;;;;;;;12.26;100.00;97344.63;5046430;28;20094;-60
2023/05/06 00:08:44;;;;;;;14.25;3.00;;;;;;;12.24;100.00;97344.09;5052103;28;20049;-60
2023/05/06 00:11:12;;;;;;;15.68;4.00;;;;;;;12.19;100.00;97352.19;5051048;28;20112;-60
2023/05/06 00:13:39;;;;;;;6.43;2.53;;;;;;;12.13;100.00;97342.38;5051211;28;20504;-60
2023/05/06 00:16:06;;;;;;;11.68;3.33;;;;;;;12.10;100.00;97339.09;5048202;28;20607;-60
2023/05/06 00:18:32;;;;;;;8.93;3.08;;;;;;;12.03;100.00;97338.50;5047633;28;20045;-60
2023/05/06 00:20:59;;;;;;;7.60;2.75;;;;;;;12.06;100.00;97334.47;5046170;28;20699;-60
2023/05/06 00:23:25;;;;;;;11.23;2.80;;;;;;;12.07;100.00;97339.66;5049029;28;20219;-60
2023/05/06 00:25:53;;;;;;;13.57;3.38;;;;;;;12.02;100.00;97336.84;5051484;28;20036;-60
2023/05/06 00:28:20;;;;;;;7.22;2.55;;;;;;;11.95;100.00;97334.38;5047667;28;20064;-60
2023/05/06 00:30:46;;;;;;;12.77;3.08;;;;;;;11.98;100.00;97330.34;5052086;28;20512;-60
2023/05/06 00:33:13;;;;;;;10.82;3.67;;;;;;;11.91;100.00;97322.41;5051838;28;20489;-60
2023/05/06 00:35:39;;;;;;;7.70;3.13;;;;;;;11.90;100.00;97328.91;5053029;28;20048;-60
2023/05/06 00:38:08;;;;;;;8.43;3.90;;;;;;;11.88;100.00;97335.69;5055991;28;20098;-60
2023/05/06 00:40:35;;;;;;;6.25;2.63;;;;;;;11.78;100.00;97334.53;5051768;28;20720;-60
2023/05/06 00:43:02;;;;;;;9.98;3.83;;;;;;;11.78;100.00;97337.25;5048443;28;20072;-60
2023/05/06 00:45:28;;;;;;;5.95;2.45;;;;;;;11.70;100.00;97335.03;5056614;28;20064;-60
2023/05/06 00:47:56;;;;;;;5.13;2.53;;;;;;;11.61;100.00;97337.41;5050861;28;20911;-60
2023/05/06 00:50:23;;;;;;;6.97;3.15;;;;;;;11.64;100.00;97341.50;5046185;28;20044;-60
2023/05/06 00:52:50;;;;;;;17.75;4.78;;;;;;;11.61;100.00;97336.59;5042768;28;20052;-60
2023/05/06 00:55:17;;;;;;;13.20;3.80;;;;;;;11.61;100.00;97342.00;5049619;28;20037;-60
2023/05/06 00:57:43;;;;;;;8.93;3.70;;;;;;;11.57;100.00;97341.69;5043005;28;20041;-60
2023/05/06 01:00:10;;;;;;;4.35;2.40;;;;;;;11.61;100.00;97336.59;5046657;28;20123;-60
2023/05/06 01:02:37;;;;;;;5.57;2.70;;;;;;;11.49;100.00;97332.16;5050768;28;20040;-60
2023/05/06 01:05:16;;;;;;;5.47;2.90;;;;;;;11.37;100.00;97334.22;5049568;28;20140;-60
2023/05/06 01:07:51;;;;;;;5.72;3.15;;;;;;;11.37;100.00;97339.63;5042738;28;20033;-61
2023/05/06 01:10:32;;;;;;;7.53;3.40;;;;;;;11.42;100.00;97335.09;5051240;28;20119;-60
2023/05/06 01:13:20;;;;;;;4.93;2.63;;;;;;;11.50;100.00;97336.50;5051579;28;20091;-60
2023/05/06 01:15:52;;;;;;;9.30;3.40;;;;;;;11.43;100.00;97330.50;5048021;28;20040;-60
2023/05/06 01:18:25;;;;;;;7.35;3.30;;;;;;;11.48;100.00;97335.13;5047559;28;20446;-60
2023/05/06 01:20:53;;;;;;;8.10;3.05;;;;;;;11.46;100.00;97327.25;5045405;28;20079;-60
2023/05/06 01:23:20;;;;;;;6.15;3.03;;;;;;;11.50;100.00;97336.50;5048769;28;20041;-60
2023/05/06 01:25:47;;;;;;;4.25;2.95;;;;;;;11.43;100.00;97344.06;5049477;28;20037;-60
2023/05/06 01:28:15;;;;;;;9.23;3.42;;;;;;;11.46;100.00;97338.09;5043922;28;20131;-60
2023/05/06 01:30:51;;;;;;;7.85;3.25;;;;;;;11.49;100.00;97340.28;5045676;28;20061;-60
2023/05/06 01:33:28;;;;;;;5.45;3.53;;;;;;;11.51;100.00;97340.03;5045302;28;20041;-60
2023/05/06 01:36:03;;;;;;;6.07;3.65;;;;;;;11.53;100.00;97337.88;5044428;28;20048;-60
2023/05/06 01:38:44;;;;;;;5.30;3.50;;;;;;;11.60;100.00;97340.38;5033401;28;20057;-60
2023/05/06 01:41:14;;;;;;;6.47;3.67;;;;;;;11.55;100.00;97341.16;5039530;28;20041;-60
2023/05/06 01:43:43;;;;;;;4.63;3.22;;;;;;;11.58;100.00;97343.34;5037297;28;20044;-60
2023/05/06 01:46:16;;;;;;;4.60;3.50;;;;;;;11.61;100.00;97347.44;5045086;28;20492;-60
2023/05/06 01:48:45;;;;;;;7.28;3.97;;;;;;;11.64;100.00;97342.31;5048063;28;20040;-60
2023/05/06 01:51:11;;;;;;;7.22;3.80;;;;;;;11.67;100.00;97349.09;5052084;28;20060;-60
2023/05/06 01:53:38;;;;;;;5.75;3.80;;;;;;;11.64;100.00;97342.31;5048584;28;20400;-60
2023/05/06 01:56:04;;;;;;;6.65;3.80;;;;;;;11.64;100.00;97347.72;5043492;28;20064;-60
2023/05/06 01:58:31;;;;;;;8.27;4.22;;;;;;;11.65;100.00;97335.78;5046559;28;20037;-60
2023/05/06 02:00:57;;;;;;;7.70;4.00;;;;;;;11.57;100.00;97334.41;5049066;28;20076;-60
2023/05/06 02:03:24;;;;;;;7.72;4.07;;;;;;;11.56;100.00;97346.31;5053570;28;20500;-60
2023/05/06 02:05:51;;;;;;;7.18;4.47;;;;;;;11.62;100.00;97339.06;5048385;28;20033;-60
2023/05/06 02:08:19;;;;;;;5.82;4.00;;;;;;;11.64;100.00;97331.47;5039471;28;20041;-60
2023/05/06 02:10:45;;;;;;;8.75;4.90;;;;;;;11.69;100.00;97339.63;5048926;28;20048;-60
2023/05/06 02:13:12;;;;;;;7.97;4.72;;;;;;;11.71;100.00;97342.09;5040525;28;20627;-60
2023/05/06 02:15:39;;;;;;;7.97;4.65;;;;;;;11.67;100.00;97339.09;5042942;28;20040;-60
2023/05/06 02:18:08;;;;;;;7.53;4.55;;;;;;;11.64;100.00;97341.50;5044314;28;20041;-60
2023/05/06 02:20:35;;;;;;;7.10;4.50;;;;;;;11.67;100.00;97330.94;5043125;28;20493;-60
2023/05/06 02:23:02;;;;;;;7.22;4.20;;;;;;;11.68;100.00;97331.75;5038960;28;20504;-60
2023/05/06 02:25:28;;;;;;;7.68;4.53;;;;;;;11.70;100.00;97337.75;5043710;28;20037;-60
2023/05/06 02:27:55;;;;;;;6.53;4.55;;;;;;;11.80;100.00;97337.00;5041745;28;20144;-60
2023/05/06 02:30:21;;;;;;;5.72;4.22;;;;;;;11.78;100.00;97333.72;5050218;28;20098;-60
2023/05/06 02:32:48;;;;;;;5.57;3.70;;;;;;;11.82;100.00;97337.53;5040191;28;20045;-60
2023/05/06 02:35:14;;;;;;;5.53;3.80;;;;;;;11.88;100.00;97336.53;5048304;28;20634;-60
2023/05/06 02:37:41;;;;;;;4.97;3.47;;;;;;;11.76;100.00;97336.69;5045286;28;20040;-59
2023/05/06 02:40:08;;;;;;;5.32;3.70;;;;;;;11.65;100.00;97340.41;5039602;28;20049;-60
2023/05/06 02:42:36;;;;;;;7.38;4.05;;;;;;;11.62;100.00;97338.22;5038905;28;20037;-60
2023/05/06 02:45:03;;;;;;;4.68;3.45;;;;;;;11.58;100.00;97333.31;5046150;28;20041;-60
2023/05/06 02:47:30;;;;;;;5.05;3.60;;;;;;;11.59;100.00;97320.56;5047433;28;20075;-60
2023/05/06 02:49:57;;;;;;;7.40;4.10;;;;;;;11.52;100.00;97326.22;5044506;28;20047;-60
2023/05/06 02:52:24;;;;;;;5.38;4.07;;;;;;;11.48;100.00;97321.56;5046045;28;20049;-60
2023/05/06 02:54:51;;;;;;;5.00;3.70;;;;;;;11.37;100.00;97317.97;5046084;28;20459;-60
2023/05/06 02:57:17;;;;;;;7.20;4.00;;;;;;;11.13;100.00;97321.03;5048290;28;20131;-60
2023/05/06 02:59:43;;;;;;;7.10;4.35;;;;;;;10.95;100.00;97323.03;5050206;28;20589;-60
2023/05/06 03:02:10;;;;;;;7.63;3.60;;;;;;;10.90;100.00;97323.78;5046744;28;20053;-60
2023/05/06 03:04:36;;;;;;;6.78;4.25;;;;;;;10.88;100.00;97323.19;5050415;28;20041;-60
2023/05/06 03:07:03;;;;;;;6.18;4.05;;;;;;;10.93;100.00;97322.44;5052220;28;20044;-60
2023/05/06 03:09:29;;;;;;;5.95;3.85;;;;;;;10.74;100.00;97320.09;5046862;28;20480;-60
2023/05/06 03:11:56;;;;;;;6.22;3.70;;;;;;;10.44;100.00;97326.78;5046952;28;20164;-60
2023/05/06 03:14:23;;;;;;;7.97;4.55;;;;;;;10.28;100.00;97320.31;5048314;28;20059;-60
2023/05/06 03:16:49;;;;;;;8.10;4.80;;;;;;;10.06;100.00;97329.25;5044129;28;20110;-60
2023/05/06 03:19:16;;;;;;;6.28;4.47;;;;;;;9.87;100.00;97334.09;5031369;28;20490;-60
2023/05/06 03:21:43;;;;;;;8.48;4.80;;;;;;;9.80;100.00;97331.59;5041335;28;20167;-60
2023/05/06 03:24:10;;;;;;;7.40;4.65;;;;;;;9.67;100.00;97331.94;5048677;28;20588;-60
2023/05/06 03:26:37;;;;;;;10.40;5.55;;;;;;;9.68;100.00;97330.84;5046851;28;20033;-60
2023/05/06 03:29:04;;;;;;;8.40;5.43;;;;;;;9.84;100.00;97340.03;5042717;28;20065;-60
2023/05/06 03:31:31;;;;;;;8.10;5.28;;;;;;;9.97;100.00;97333.44;5044383;28;20052;-60
2023/05/06 03:33:59;;;;;;;6.57;4.88;;;;;;;9.95;100.00;97331.00;5044611;28;20585;-60
2023/05/06 03:36:26;;;;;;;7.43;4.90;;;;;;;9.64;100.00;97327.84;5045551;28;20612;-60
2023/05/06 03:38:54;;;;;;;7.00;4.80;;;;;;;9.39;100.00;97323.66;5037949;28;20056;-60
2023/05/06 03:41:22;;;;;;;7.53;5.05;;;;;;;9.15;100.00;97323.81;5044218;28;20045;-60
2023/05/06 03:43:48;;;;;;;10.73;5.43;;;;;;;9.10;100.00;97327.25;5044369;28;20052;-60
2023/05/06 03:46:17;;;;;;;6.63;4.75;;;;;;;8.99;100.00;97322.72;5043979;28;20041;-60
2023/05/06 03:48:44;;;;;;;7.43;4.97;;;;;;;8.95;100.00;97327.78;5044092;28;20547;-60
2023/05/06 03:51:14;;;;;;;10.07;6.00;;;;;;;8.95;100.00;97335.06;5047213;28;20608;-63
2023/05/06 03:53:40;;;;;;;8.50;5.72;;;;;;;8.94;100.00;97334.25;5053924;28;20067;-60
2023/05/06 03:56:07;;;;;;;8.32;5.25;;;;;;;8.96;100.00;97336.72;5039785;28;20041;-60
2023/05/06 03:58:35;;;;;;;6.90;5.10;;;;;;;8.75;100.00;97320.16;5042177;28;20041;-60
2023/05/06 04:01:04;;;;;;;7.03;5.03;;;;;;;8.74;100.00;97332.00;5047645;28;20048;-60
2023/05/06 04:03:31;;;;;;;8.32;5.22;;;;;;;8.70;100.00;97328.94;5046306;28;20068;-60
2023/05/06 04:05:58;;;;;;;7.65;4.88;;;;;;;8.64;100.00;97323.69;5042521;28;20048;-60
2023/05/06 04:08:25;;;;;;;9.02;5.47;;;;;;;8.53;100.00;97326.22;5051646;28;20032;-60
2023/05/06 04:10:53;;;;;;;9.52;5.63;;;;;;;8.53;100.00;97320.81;5044596;28;20052;-60
2023/05/06 04:13:26;;;;;;;7.57;5.10;;;;;;;8.58;100.00;97328.16;5044088;28;20059;-60
2023/05/06 04:15:55;;;;;;;10.77;5.50;;;;;;;8.57;100.00;97323.84;5039279;28;20044;-60
2023/05/06 04:18:26;;;;;;;7.22;5.47;;;;;;;8.50;100.00;97325.81;5040877;28;20048;-60
2023/05/06 04:20:59;;;;;;;;;;;;;;;8.53;100.00;97323.50;5043159;28;20069;-60
2023/05/06 04:23:27;;;;;;;9.88;5.38;;;;;;;8.64;100.00;97327.22;5044641;28;20473;-60
2023/05/06 04:25:56;;;;;;;10.98;6.22;;;;;;;8.70;100.00;97325.44;5043233;28;20538;-60
2023/05/06 04:28:23;;;;;;;10.93;5.57;;;;;;;8.62;100.00;97323.13;5049617;28;20053;-61
2023/05/06 04:30:51;;;;;;;8.65;5.57;;;;;;;8.73;100.00;97332.25;5045511;28;20048;-60
2023/05/06 04:33:21;;;;;;;7.63;5.80;;;;;;;8.77;100.00;97325.31;5040900;28;20685;-60
2023/05/06 04:35:54;;;;;;;7.50;5.30;;;;;;;8.80;100.00;97335.59;5044006;28;20048;-60
2023/05/06 04:38:24;;;;;;;20.85;6.75;;;;;;;8.93;100.00;97332.63;5046518;28;20139;-60
2023/05/06 04:40:51;;;;;;;10.90;6.25;;;;;;;9.09;100.00;97335.59;5059840;28;20045;-60
2023/05/06 04:43:18;;;;;;;8.45;5.82;;;;;;;9.10;100.00;97334.53;5044094;28;20142;-60
2023/05/06 04:45:50;;;;;;;11.68;5.60;;;;;;;9.13;100.00;97335.94;5041852;28;20036;-60
2023/05/06 04:48:21;;;;;;;10.75;5.95;;;;;;;9.20;100.00;97344.69;5038031;28;20853;-60
2023/05/06 04:50:50;;;;;;;11.90;6.35;;;;;;;9.12;100.00;97337.81;5047463;28;20087;-60
2023/05/06 04:53:16;;;;;;;7.88;5.75;;;;;;;9.09;100.00;97333.72;5038407;28;20055;-60
2023/05/06 04:55:43;;;;;;;8.60;5.90;;;;;;;9.20;100.00;97352.78;5039394;28;20037;-60
2023/05/06 04:58:09;;;;;;;8.27;5.53;;;;;;;9.36;100.00;97356.56;5038456;28;20052;-60
2023/05/06 05:00:36;;;;;;;12.75;6.00;;;;;;;9.47;100.00;97354.88;5043447;28;20040;-60
2023/05/06 05:03:03;;;;;;;10.35;6.30;;;;;;;9.59;100.00;97352.91;5041564;28;20044;-60
2023/05/06 05:05:32;;;;;;;9.32;5.43;;;;;;;9.76;100.00;97363.72;5042945;28;20041;-60
2023/05/06 05:07:59;;;;;;;9.45;6.70;;;;;;;9.87;100.00;97366.56;5041679;28;20048;-60
2023/05/06 05:10:28;;;;;;;9.60;5.95;;;;;;;10.01;100.00;97359.75;5044676;28;20033;-60
2023/05/06 05:12:54;;;;;;;10.20;5.85;;;;;;;10.07;100.00;97366.06;5048614;28;20044;-60
2023/05/06 05:15:21;;;;;;;9.88;6.13;;;;;;;10.18;100.00;97366.19;5045261;28;20055;-60
2023/05/06 05:17:49;;;;;;;8.68;5.43;;;;;;;10.27;100.00;97370.94;5045888;28;20053;-60
2023/05/06 05:20:16;;;;;;;7.38;5.38;;;;;;;10.44;100.00;97364.69;5038095;28;20450;-60
2023/05/06 05:22:43;;;;;;;10.57;6.50;;;;;;;10.56;100.00;97356.44;5039127;28;20079;-60
2023/05/06 05:25:09;;;;;;;12.43;6.20;;;;;;;10.70;100.00;97364.16;5043428;28;20049;-60
2023/05/06 05:27:36;;;;;;;7.95;5.10;;;;;;;10.85;100.00;97363.53;5040583;28;20073;-60
2023/05/06 05:30:03;;;;;;;8.80;5.63;;;;;;;10.99;100.00;97362.03;5045620;28;20047;-60
2023/05/06 05:32:33;;;;;;;7.85;5.18;;;;;;;11.14;100.00;97357.88;5042927;28;20044;-60
2023/05/06 05:34:59;;;;;;;10.77;5.70;;;;;;;11.25;100.00;97358.78;5040889;28;20500;-60
2023/05/06 05:37:26;;;;;;;6.53;4.75;;;;;;;11.38;100.00;97365.66;5045233;28;20037;-60
2023/05/06 05:39:52;;;;;;;7.38;4.22;;;;;;;11.51;100.00;97370.69;5044656;28;20055;-60
2023/05/06 05:42:19;;;;;;;6.60;4.32;;;;;;;11.65;100.00;97367.53;5044177;28;20072;-60
2023/05/06 05:44:46;;;;;;;7.40;3.88;;;;;;;11.76;100.00;97365.72;5045600;28;20127;-60
2023/05/06 05:47:14;;;;;;;4.70;3.40;;;;;;;11.92;100.00;97363.94;5043830;28;20044;-60
2023/05/06 05:49:40;;;;;;;5.43;3.67;;;;;;;12.06;100.00;97358.91;5044577;28;20037;-60
2023/05/06 05:52:08;;;;;;;8.07;3.15;;;;;;;12.18;100.00;97358.69;5041377;28;20045;-60
2023/05/06 05:54:36;;;;;;;5.45;2.72;;;;;;;12.29;100.00;97354.97;5045494;28;20033;-60
2023/05/06 05:57:03;;;;;;;5.50;2.80;;;;;;;12.38;100.00;97370.75;5051859;28;20039;-61
2023/05/06 05:59:31;;;;;;;7.50;2.92;;;;;;;12.46;100.00;97362.09;5041658;28;20059;-60
2023/05/06 06:02:01;;;;;;;;;;;;;;;12.63;100.00;97364.63;5042737;28;20047;-61
2023/05/06 06:04:28;;;;;;;5.25;2.65;;;;;;;12.77;100.00;97364.94;5041604;28;20629;-60
2023/05/06 06:07:00;;;;;;;3.92;2.40;;;;;;;12.83;100.00;97361.16;5038839;28;20132;-60
2023/05/06 06:09:29;;;;;;;5.32;2.15;;;;;;;12.85;100.00;97361.72;5043283;28;20052;-60
2023/05/06 06:11:58;;;;;;;5.20;2.35;;;;;;;12.88;100.00;97360.34;5044752;28;20048;-60
2023/05/06 06:14:24;;;;;;;4.97;1.95;;;;;;;12.97;100.00;97363.38;5047265;28;20551;-60
2023/05/06 06:16:52;;;;;;;5.30;2.67;;;;;;;12.97;100.00;97363.38;5038420;28;20056;-60
2023/05/06 06:19:19;;;;;;;4.85;2.80;;;;;;;12.90;100.00;97373.69;5047774;28;20144;-60
2023/05/06 06:21:46;;;;;;;4.57;2.20;;;;;;;12.99;100.00;97374.78;5042481;28;20056;-61
2023/05/06 06:24:13;;;;;;;5.22;2.60;;;;;;;12.96;100.00;97369.88;5040679;28;20526;-60
2023/05/06 06:26:39;;;;;;;5.40;2.58;;;;;;;13.11;100.00;97372.66;5042260;28;20045;-60
2023/05/06 06:29:06;;;;;;;4.55;2.38;;;;;;;13.26;100.00;97379.19;5050465;28;20048;-60
2023/05/06 06:31:33;;;;;;;5.50;2.30;;;;;;;13.29;100.00;97377.81;5047669;28;20040;-61
2023/05/06 06:34:04;;;;;;;4.95;2.28;;;;;;;13.27;100.00;97381.66;5061067;28;20037;-60
2023/05/06 06:36:31;;;;;;;4.75;2.10;;;;;;;13.26;100.00;97377.28;5050711;28;20041;-60
2023/05/06 06:38:57;;;;;;;4.68;2.17;;;;;;;13.33;100.00;97389.81;5043851;28;20167;-60
2023/05/06 06:41:26;;;;;;;3.03;1.70;;;;;;;13.36;100.00;97392.81;5042753;28;20419;-60
2023/05/06 06:43:52;;;;;;;4.10;1.67;;;;;;;13.51;100.00;97389.34;5047455;28;20127;-61
2023/05/06 06:46:23;;;;;;;2.83;1.60;;;;;;;13.57;100.00;97392.06;5049876;28;20044;-61
2023/05/06 06:48:50;;;;;;;5.18;1.70;;;;;;;13.51;99.70;97383.88;5048165;28;20547;-60
2023/05/06 06:51:16;;;;;;;17.33;8.05;;;;;;;13.63;100.00;97388.22;5046642;28;20516;-60
2023/05/06 06:53:43;;;;;;;14.10;8.35;;;;;;;13.76;100.00;97389.59;5048419;28;20123;-60
2023/05/06 06:56:11;;;;;;;7.25;2.50;;;;;;;13.91;100.00;97397.78;5037962;28;20036;-61
2023/05/06 06:58:37;;;;;;;4.70;1.70;;;;;;;14.12;99.73;97394.22;5045513;28;20052;-60
2023/05/06 07:01:04;;;;;;;4.43;2.00;;;;;;;14.32;98.10;97393.34;5044180;28;20045;-60
2023/05/06 07:03:30;;;;;;;4.43;1.60;;;;;;;14.42;95.75;97390.59;5046066;28;20102;-60
2023/05/06 07:05:57;;;;;;;5.32;1.50;;;;;;;14.62;93.25;97402.53;5044043;28;20127;-60
2023/05/06 07:08:24;;;;;;;2.55;1.00;;;;;;;14.79;92.04;97402.25;5045346;28;20041;-61
2023/05/06 07:10:50;;;;;;;4.88;1.58;;;;;;;14.94;89.87;97400.53;5042056;28;20151;-61
2023/05/06 07:13:19;;;;;;;5.90;1.83;;;;;;;15.07;88.47;97390.91;5044015;28;20048;-60
2023/05/06 07:15:45;;;;;;;6.00;1.67;;;;;;;15.14;89.30;97396.06;5046364;28;20041;-60
2023/05/06 07:18:12;;;;;;;4.07;1.83;;;;;;;15.30;86.67;97402.25;5052083;28;20083;-61
2023/05/06 07:20:39;;;;;;;3.30;1.10;;;;;;;15.36;84.35;97403.03;5047302;28;20048;-59
2023/05/06 07:23:05;;;;;;;2.70;1.40;;;;;;;15.53;84.84;97402.63;5044231;28;20048;-60
2023/05/06 07:25:32;;;;;;;4.20;1.60;;;;;;;15.53;86.20;97400.75;5044712;28;20041;-60
2023/05/06 07:27:58;;;;;;;2.20;1.10;;;;;;;15.40;88.25;97398.66;5045295;28;20051;-60
2023/05/06 07:30:25;;;;;;;3.78;1.20;;;;;;;15.16;88.85;97404.78;5054234;28;20052;-60
2023/05/06 07:32:52;;;;;;;2.35;1.20;;;;;;;15.24;88.25;97400.63;5043925;28;20052;-60
2023/05/06 07:35:18;;;;;;;5.63;1.67;;;;;;;15.35;87.33;97399.47;5043468;28;20060;-61
2023/05/06 07:37:45;;;;;;;4.63;2.38;;;;;;;15.46;87.18;97394.78;5041452;28;20056;-60
2023/05/06 07:40:12;;;;;;;4.38;1.95;;;;;;;15.31;84.51;97401.97;5046422;28;20095;-60
2023/05/06 07:42:39;;;;;;;4.38;1.92;;;;;;;15.26;86.89;97399.25;5044365;28;20049;-60
2023/05/06 07:45:08;;;;;;;3.00;1.50;;;;;;;15.24;86.19;97393.28;5043460;28;20757;-60
2023/05/06 07:47:35;;;;;;;3.28;1.20;;;;;;;15.28;82.30;97396.25;5044480;28;20116;-60
2023/05/06 07:50:04;;;;;;;4.75;1.42;;;;;;;15.28;84.34;97402.53;5040431;28;20037;-60
2023/05/06 07:52:31;;;;;;;3.28;1.50;;;;;;;15.63;83.65;97405.31;5045771;28;20056;-60
2023/05/06 07:54:57;;;;;;;3.05;1.40;;;;;;;15.83;81.05;97401.59;5039571;28;20076;-60
2023/05/06 07:57:24;;;;;;;4.07;1.45;;;;;;;15.65;81.34;97403.09;5041399;28;20049;-60
2023/05/06 07:59:51;;;;;;;2.92;1.20;;;;;;;15.52;81.41;97407.28;5044269;28;20068;-61
2023/05/06 08:02:18;;;;;;;3.03;1.10;;;;;;;15.40;80.02;97413.09;5043050;28;20049;-60
2023/05/06 08:04:45;;;;;;;3.33;1.08;;;;;;;15.50;77.18;97414.94;5042794;28;20033;-60
2023/05/06 08:07:12;;;;;;;2.25;0.80;;;;;;;15.13;76.02;97417.06;5043092;28;20520;-60
2023/05/06 08:09:38;;;;;;;2.95;1.13;;;;;;;14.92;77.25;97422.63;5045272;28;20049;-60
2023/05/06 08:12:05;;;;;;;2.35;1.05;;;;;;;15.19;76.63;97418.66;5046871;28;20056;-60
2023/05/06 08:14:31;;;;;;;2.85;1.05;;;;;;;15.32;77.78;97417.22;5042552;28;20234;-60
2023/05/06 08:16:58;;;;;;;2.40;1.27;;;;;;;15.56;76.74;97416.53;5045547;28;20049;-60
2023/05/06 08:19:25;;;;;;;2.85;1.10;;;;;;;15.57;78.09;97417.34;5047123;28;20045;-60
2023/05/06 08:21:51;;;;;;;4.28;1.42;;;;;;;15.68;79.64;97420.81;5040125;28;20463;-60
2023/05/06 08:24:19;;;;;;;3.20;1.20;;;;;;;15.67;77.77;97421.94;5043492;28;20060;-61
2023/05/06 08:26:45;;;;;;;2.13;1.00;;;;;;;15.92;77.06;97418.16;5038791;28;20072;-60
2023/05/06 08:29:12;;;;;;;3.70;2.40;;;;;;;16.08;75.09;97420.81;5045104;28;20641;-60
2023/05/06 08:31:38;;;;;;;2.17;1.20;;;;;;;16.12;74.59;97419.13;5050473;28;20044;-60
2023/05/06 08:34:05;;;;;;;3.25;1.50;;;;;;;16.10;75.35;97421.31;5043999;28;20044;-61
2023/05/06 08:36:32;;;;;;;3.08;1.30;;;;;;;16.28;75.34;97414.31;5043704;28;20494;-61
2023/05/06 08:38:58;;;;;;;2.53;1.13;;;;;;;16.20;75.08;97420.41;5043576;28;20044;-60
2023/05/06 08:41:26;;;;;;;3.13;1.45;;;;;;;16.35;75.71;97420.28;5049090;28;20732;-60
2023/05/06 08:43:54;;;;;;;1.92;1.10;;;;;;;16.49;74.48;97423.16;5039848;28;20072;-60
2023/05/06 08:46:21;;;;;;;2.85;1.05;;;;;;;16.64;71.51;97427.63;5038672;28;20103;-60
2023/05/06 08:48:48;;;;;;;1.30;0.88;;;;;;;16.63;72.20;97422.44;5044208;28;20045;-60
2023/05/06 08:51:15;;;;;;;2.38;1.00;;;;;;;16.45;69.41;97422.09;5042879;28;20041;-60
2023/05/06 08:53:46;;;;;;;1.50;1.00;;;;;;;16.36;70.48;97421.91;5046691;28;20090;-61
2023/05/06 08:56:14;;;;;;;;;;;;;;;16.27;70.92;97422.81;5041330;28;20094;-60
2023/05/06 08:58:44;;;;;;;3.05;1.08;;;;;;;16.64;70.05;97418.59;5042757;28;20011;-60
2023/05/06 09:01:11;;;;;;;5.80;1.13;;;;;;;16.71;69.41;97418.25;5040158;28;20180;-61
2023/05/06 09:03:37;;;;;;;2.78;1.25;;;;;;;16.97;66.99;97423.41;5042630;28;20106;-60
2023/05/06 09:06:04;;;;;;;3.22;1.02;;;;;;;16.85;68.51;97434.78;5051765;28;20071;-61
2023/05/06 09:08:30;;;;;;;2.40;0.80;;;;;;;16.80;65.65;97430.16;5046475;28;20148;-60
2023/05/06 09:10:57;;;;;;;3.38;0.85;;;;;;;17.12;66.19;97415.06;5045199;28;20080;-61
2023/05/06 09:13:23;;;;;;;2.13;1.02;;;;;;;17.66;64.89;97411.28;5041052;28;20068;-61
2023/05/06 09:15:54;;;;;;;2.10;1.33;;;;;;;18.06;63.35;97419.94;5038178;28;20705;-61
2023/05/06 09:18:21;;;;;;;3.42;1.05;;;;;;;17.99;63.27;97416.75;5042137;28;20049;-61
2023/05/06 09:20:48;;;;;;;3.35;1.20;;;;;;;17.53;64.08;97419.13;5042281;28;20116;-61
2023/05/06 09:23:16;;;;;;;6.38;1.42;;;;;;;17.58;66.19;97417.44;5043084;28;20419;-60
2023/05/06 09:25:45;;;;;;;2.45;1.35;;;;;;;17.12;69.39;97414.22;5043711;28;20041;-60
2023/05/06 09:28:13;;;;;;;2.67;1.40;;;;;;;17.22;70.13;97416.03;5041179;28;20036;-60
2023/05/06 09:30:41;;;;;;;5.10;1.50;;;;;;;17.28;69.12;97421.13;5042180;28;20106;-60
2023/05/06 09:33:08;;;;;;;2.72;1.48;;;;;;;17.13;69.51;97413.94;5043730;28;20069;-60
2023/05/06 09:35:40;;;;;;;3.47;1.77;;;;;;;17.26;69.98;97414.31;5040934;28;20052;-60
2023/05/06 09:38:07;;;;;;;3.30;1.50;;;;;;;17.26;68.25;97406.94;5041652;28;20125;-60
2023/05/06 09:40:35;;;;;;;3.40;1.40;;;;;;;17.61;67.32;97405.91;5039645;28;20091;-60
2023/05/06 09:43:02;;;;;;;3.85;1.48;;;;;;;17.59;66.13;97410.84;5041870;28;20575;-60
2023/05/06 09:45:29;;;;;;;4.22;1.42;;;;;;;17.67;65.19;97407.44;5039300;28;20083;-60
2023/05/06 09:47:57;;;;;;;3.03;1.67;;;;;;;17.68;66.19;97404.41;5054604;28;20052;-60
2023/05/06 09:50:25;;;;;;;2.72;1.13;;;;;;;18.02;63.50;97404.41;5043274;28;20037;-61
2023/05/06 09:52:53;;;;;;;1.83;1.10;;;;;;;17.68;63.92;97395.34;5045598;28;20052;-61
2023/05/06 09:55:22;;;;;;;3.92;1.20;;;;;;;18.00;62.77;97391.00;5052374;28;20040;-60
2023/05/06 09:57:48;;;;;;;3.08;1.30;;;;;;;18.40;62.83;97392.53;5052717;28;20060;-60
2023/05/06 10:00:16;;;;;;;2.65;1.15;;;;;;;18.47;61.81;97398.44;5060471;28;20040;-61
2023/05/06 10:02:44;;;;;;;1.98;0.98;;;;;;;18.41;59.92;97394.16;5048892;28;20037;-60
2023/05/06 10:05:11;;;;;;;1.73;1.00;;;;;;;18.29;59.76;97392.72;5041624;28;20052;-60
2023/05/06 10:07:41;;;;;;;2.33;1.00;;;;;;;18.21;60.09;97387.94;5045785;28;20041;-61
2023/05/06 10:10:10;;;;;;;2.45;1.13;;;;;;;17.96;60.42;97384.50;5042630;28;20072;-60
2023/05/06 10:12:36;;;;;;;3.25;1.35;;;;;;;17.88;61.33;97390.66;5047180;28;20060;-60
2023/05/06 10:15:04;;;;;;;1.92;1.10;;;;;;;17.87;60.69;97389.84;5043708;28;20397;-61
2023/05/06 10:17:32;;;;;;;1.75;0.93;;;;;;;18.09;60.29;97384.88;5042488;28;20044;-60
2023/05/06 10:20:00;;;;;;;1.45;0.90;;;;;;;18.13;58.88;97383.16;5048207;28;20131;-60
2023/05/06 10:22:37;;;;;;;2.70;1.15;;;;;;;17.96;58.81;97384.50;5045944;28;20068;-60
2023/05/06 10:25:15;;;;;;;2.60;0.98;;;;;;;18.20;60.61;97380.81;5043136;28;20123;-61
2023/05/06 10:27:44;;;;;;;2.45;1.02;;;;;;;18.26;60.75;97376.88;5052566;28;20114;-61
2023/05/06 10:30:13;;;;;;;1.98;1.10;;;;;;;18.62;59.43;97371.81;5053882;28;20516;-61
2023/05/06 10:32:42;;;;;;;1.40;1.00;;;;;;;18.38;60.48;97378.31;5042860;28;20038;-61
2023/05/06 10:35:33;;;;;;;3.05;1.23;;;;;;;18.69;59.99;97364.81;5047899;28;20049;-61
2023/05/06 10:38:02;;;;;;;2.93;1.60;;;;;;;19.09;60.54;97355.25;5051172;28;20064;-61
2023/05/06 10:40:30;;;;;;;3.95;1.75;;;;;;;18.83;60.16;97361.22;5045976;28;20081;-61
2023/05/06 10:43:26;;;;;;;3.88;1.90;;;;;;;18.40;61.59;97367.88;5047240;28;20110;-61
2023/05/06 10:46:08;;;;;;;3.08;1.75;;;;;;;18.25;62.23;97358.81;5042066;28;20094;-61
2023/05/06 10:48:58;;;;;;;3.20;1.35;;;;;;;18.29;61.87;97348.88;5040739;28;20052;-61
2023/05/06 10:51:27;;;;;;;2.95;1.50;;;;;;;18.57;61.58;97348.03;5041763;28;20047;-60
2023/05/06 10:54:03;;;;;;;3.10;1.58;;;;;;;18.52;60.06;97340.75;5048474;28;20527;-61
2023/05/06 10:56:50;;;;;;;3.25;1.90;;;;;;;18.52;62.36;97339.94;5041987;28;20045;-61
2023/05/06 10:59:22;;;;;;;3.22;1.40;;;;;;;18.89;61.33;97346.31;5043905;28;20128;-60
2023/05/06 11:02:09;;;;;;;2.05;0.90;;;;;;;19.28;58.92;97335.88;5045657;28;20098;-60
2023/05/06 11:04:36;;;;;;;4.15;1.80;;;;;;;18.98;58.10;97336.22;5042216;28;20055;-61
2023/05/06 11:07:11;;;;;;;12.38;6.20;;;;;;;18.78;59.14;97329.25;5042381;28;20041;-61
2023/05/06 11:09:58;;;;;;;3.50;1.50;;;;;;;19.26;59.62;97329.88;5050276;28;20048;-61
2023/05/06 11:12:48;;;;;;;2.05;1.10;;;;;;;19.44;58.64;97328.09;5045392;28;20540;-61
2023/05/06 11:15:39;;;;;;;2.55;1.40;;;;;;;19.45;56.33;97329.69;5040087;28;20049;-61
2023/05/06 11:18:23;;;;;;;2.42;1.23;;;;;;;19.90;55.99;97328.03;5046707;28;20558;-61
2023/05/06 11:21:00;;;;;;;1.42;0.98;;;;;;;19.96;56.26;97328.72;5042185;28;20047;-61
2023/05/06 11:23:42;;;;;;;2.70;1.20;;;;;;;19.69;55.62;97322.28;5043533;28;20756;-60
2023/05/06 11:26:09;;;;;;;4.70;1.55;;;;;;;19.44;55.78;97321.78;5052910;28;20037;-60
2023/05/06 11:28:37;;;;;;;4.57;1.33;;;;;;;19.43;54.11;97323.72;5056601;28;20120;-60
2023/05/06 11:31:04;;;;;;;2.65;1.10;;;;;;;19.40;54.15;97318.03;5043796;28;20086;-60
2023/05/06 11:33:33;;;;;;;2.63;1.00;;;;;;;19.57;55.11;97317.34;5041739;28;20053;-61
2023/05/06 11:36:00;;;;;;;1.55;0.82;;;;;;;19.92;51.87;97314.00;5048365;28;20093;-61